sensor_id;sensor_type;location;lat;lon;timestamp;P1;durP1;ratioP1;P2;durP2;ratioP2
22660;SDS011;11497;52.222;21.246;2022-08-25T00:02:04;22.00;;;5.55;;
22660;SDS011;11497;52.222;21.246;2022-08-25T00:04:35;13.95;;;4.30;;
22660;SDS011;11497;52.222;21.246;2022-08-25T00:07:04;15.00;;;4.72;;
22660;SDS011;11497;52.222;21.246;2022-08-25T00:09:32;18.58;;;5.07;;
22660;SDS011;11497;52.222;21.246;2022-08-25T00:12:01;16.10;;;4.88;;
22660;SDS011;11497;52.222;21.246;2022-08-25T00:14:34;13.00;;;4.72;;
22660;SDS011;11497;52.222;21.246;2022-08-25T00:17:03;16.15;;;4.45;;
22660;SDS011;11497;52.222;21.246;2022-08-25T00:19:33;15.65;;;4.60;;
22660;SDS011;11497;52.222;21.246;2022-08-25T00:22:04;13.65;;;4.05;;
22660;SDS011;11497;52.222;21.246;2022-08-25T00:24:33;17.58;;;4.18;;
22660;SDS011;11497;52.222;21.246;2022-08-25T00:27:01;13.98;;;4.90;;
22660;SDS011;11497;52.222;21.246;2022-08-25T00:29:31;16.88;;;4.65;;
22660;SDS011;11497;52.222;21.246;2022-08-25T00:31:59;14.98;;;4.38;;
22660;SDS011;11497;52.222;21.246;2022-08-25T00:34:29;13.45;;;4.80;;
22660;SDS011;11497;52.222;21.246;2022-08-25T00:37:02;16.98;;;4.97;;
22660;SDS011;11497;52.222;21.246;2022-08-25T00:39:32;14.45;;;4.85;;
22660;SDS011;11497;52.222;21.246;2022-08-25T00:42:00;13.00;;;4.32;;
22660;SDS011;11497;52.222;21.246;2022-08-25T00:44:33;22.25;;;5.20;;
22660;SDS011;11497;52.222;21.246;2022-08-25T00:47:02;19.48;;;4.38;;
22660;SDS011;11497;52.222;21.246;2022-08-25T00:49:32;12.20;;;4.40;;
22660;SDS011;11497;52.222;21.246;2022-08-25T00:52:10;16.70;;;4.40;;
22660;SDS011;11497;52.222;21.246;2022-08-25T00:54:52;15.02;;;4.55;;
22660;SDS011;11497;52.222;21.246;2022-08-25T00:57:45;12.10;;;4.45;;
22660;SDS011;11497;52.222;21.246;2022-08-25T01:00:44;15.95;;;4.95;;
22660;SDS011;11497;52.222;21.246;2022-08-25T01:03:16;11.45;;;4.35;;
22660;SDS011;11497;52.222;21.246;2022-08-25T01:05:45;12.15;;;4.47;;
22660;SDS011;11497;52.222;21.246;2022-08-25T01:08:14;16.52;;;4.90;;
22660;SDS011;11497;52.222;21.246;2022-08-25T01:10:45;12.73;;;4.68;;
22660;SDS011;11497;52.222;21.246;2022-08-25T01:13:17;15.50;;;5.15;;
22660;SDS011;11497;52.222;21.246;2022-08-25T01:15:47;11.02;;;4.63;;
22660;SDS011;11497;52.222;21.246;2022-08-25T01:18:18;10.35;;;4.50;;
22660;SDS011;11497;52.222;21.246;2022-08-25T01:20:54;19.45;;;5.40;;
22660;SDS011;11497;52.222;21.246;2022-08-25T01:23:23;17.65;;;5.05;;
22660;SDS011;11497;52.222;21.246;2022-08-25T01:26:12;16.73;;;4.88;;
22660;SDS011;11497;52.222;21.246;2022-08-25T01:28:53;13.30;;;4.90;;
22660;SDS011;11497;52.222;21.246;2022-08-25T01:31:41;15.93;;;4.88;;
22660;SDS011;11497;52.222;21.246;2022-08-25T01:34:09;15.75;;;5.45;;
22660;SDS011;11497;52.222;21.246;2022-08-25T01:36:38;20.73;;;5.53;;
22660;SDS011;11497;52.222;21.246;2022-08-25T01:39:08;13.35;;;4.93;;
22660;SDS011;11497;52.222;21.246;2022-08-25T01:41:45;17.95;;;5.60;;
22660;SDS011;11497;52.222;21.246;2022-08-25T01:44:31;16.03;;;6.03;;
22660;SDS011;11497;52.222;21.246;2022-08-25T01:47:02;14.63;;;5.55;;
22660;SDS011;11497;52.222;21.246;2022-08-25T01:49:31;19.83;;;5.75;;
22660;SDS011;11497;52.222;21.246;2022-08-25T01:52:10;18.85;;;6.18;;
22660;SDS011;11497;52.222;21.246;2022-08-25T01:54:47;21.40;;;6.38;;
22660;SDS011;11497;52.222;21.246;2022-08-25T01:57:15;22.70;;;6.75;;
22660;SDS011;11497;52.222;21.246;2022-08-25T01:59:43;16.25;;;5.80;;
22660;SDS011;11497;52.222;21.246;2022-08-25T02:02:11;21.38;;;6.50;;
22660;SDS011;11497;52.222;21.246;2022-08-25T02:04:39;25.58;;;6.65;;
22660;SDS011;11497;52.222;21.246;2022-08-25T02:07:10;20.05;;;6.00;;
22660;SDS011;11497;52.222;21.246;2022-08-25T02:09:38;24.65;;;6.57;;
22660;SDS011;11497;52.222;21.246;2022-08-25T02:12:06;22.35;;;7.50;;
22660;SDS011;11497;52.222;21.246;2022-08-25T02:14:37;22.20;;;7.20;;
22660;SDS011;11497;52.222;21.246;2022-08-25T02:17:07;27.25;;;7.57;;
22660;SDS011;11497;52.222;21.246;2022-08-25T02:19:35;24.38;;;7.40;;
22660;SDS011;11497;52.222;21.246;2022-08-25T02:22:03;27.50;;;6.78;;
22660;SDS011;11497;52.222;21.246;2022-08-25T02:24:31;27.00;;;7.32;;
22660;SDS011;11497;52.222;21.246;2022-08-25T02:27:00;26.80;;;7.68;;
22660;SDS011;11497;52.222;21.246;2022-08-25T02:29:29;22.85;;;7.30;;
22660;SDS011;11497;52.222;21.246;2022-08-25T02:31:58;26.50;;;7.68;;
22660;SDS011;11497;52.222;21.246;2022-08-25T02:34:26;23.08;;;7.32;;
22660;SDS011;11497;52.222;21.246;2022-08-25T02:36:53;28.05;;;7.60;;
22660;SDS011;11497;52.222;21.246;2022-08-25T02:39:21;30.35;;;7.70;;
22660;SDS011;11497;52.222;21.246;2022-08-25T02:41:49;28.20;;;7.57;;
22660;SDS011;11497;52.222;21.246;2022-08-25T02:44:17;29.40;;;8.40;;
22660;SDS011;11497;52.222;21.246;2022-08-25T02:46:45;26.52;;;7.82;;
22660;SDS011;11497;52.222;21.246;2022-08-25T02:49:12;19.45;;;8.75;;
22660;SDS011;11497;52.222;21.246;2022-08-25T02:51:40;21.10;;;8.15;;
22660;SDS011;11497;52.222;21.246;2022-08-25T02:54:08;31.63;;;8.45;;
22660;SDS011;11497;52.222;21.246;2022-08-25T02:56:36;24.88;;;8.30;;
22660;SDS011;11497;52.222;21.246;2022-08-25T02:59:04;24.30;;;8.82;;
22660;SDS011;11497;52.222;21.246;2022-08-25T03:01:32;32.10;;;8.20;;
22660;SDS011;11497;52.222;21.246;2022-08-25T03:04:00;26.02;;;9.60;;
22660;SDS011;11497;52.222;21.246;2022-08-25T03:06:29;26.80;;;8.45;;
22660;SDS011;11497;52.222;21.246;2022-08-25T03:08:57;28.48;;;7.93;;
22660;SDS011;11497;52.222;21.246;2022-08-25T03:11:24;26.83;;;8.57;;
22660;SDS011;11497;52.222;21.246;2022-08-25T03:13:53;24.88;;;8.50;;
22660;SDS011;11497;52.222;21.246;2022-08-25T03:16:22;19.33;;;7.85;;
22660;SDS011;11497;52.222;21.246;2022-08-25T03:18:53;25.58;;;8.82;;
22660;SDS011;11497;52.222;21.246;2022-08-25T03:21:23;32.13;;;8.23;;
22660;SDS011;11497;52.222;21.246;2022-08-25T03:23:51;27.90;;;9.38;;
22660;SDS011;11497;52.222;21.246;2022-08-25T03:26:19;30.00;;;8.38;;
22660;SDS011;11497;52.222;21.246;2022-08-25T03:29:06;26.33;;;8.55;;
22660;SDS011;11497;52.222;21.246;2022-08-25T03:31:34;27.20;;;9.82;;
22660;SDS011;11497;52.222;21.246;2022-08-25T03:34:02;20.50;;;9.73;;
22660;SDS011;11497;52.222;21.246;2022-08-25T03:36:31;37.63;;;9.65;;
22660;SDS011;11497;52.222;21.246;2022-08-25T03:38:58;24.45;;;9.00;;
22660;SDS011;11497;52.222;21.246;2022-08-25T03:41:27;25.55;;;9.15;;
22660;SDS011;11497;52.222;21.246;2022-08-25T03:43:58;30.40;;;9.73;;
22660;SDS011;11497;52.222;21.246;2022-08-25T03:46:29;26.30;;;9.55;;
22660;SDS011;11497;52.222;21.246;2022-08-25T03:49:01;34.65;;;10.00;;
22660;SDS011;11497;52.222;21.246;2022-08-25T03:51:31;47.88;;;11.13;;
22660;SDS011;11497;52.222;21.246;2022-08-25T03:54:02;31.65;;;10.63;;
22660;SDS011;11497;52.222;21.246;2022-08-25T03:56:30;33.75;;;9.75;;
22660;SDS011;11497;52.222;21.246;2022-08-25T03:58:58;25.00;;;9.45;;
22660;SDS011;11497;52.222;21.246;2022-08-25T04:01:26;24.27;;;9.65;;
22660;SDS011;11497;52.222;21.246;2022-08-25T04:03:54;35.60;;;9.95;;
22660;SDS011;11497;52.222;21.246;2022-08-25T04:06:22;31.23;;;10.38;;
22660;SDS011;11497;52.222;21.246;2022-08-25T04:08:50;37.63;;;11.52;;
22660;SDS011;11497;52.222;21.246;2022-08-25T04:11:19;31.23;;;9.23;;
22660;SDS011;11497;52.222;21.246;2022-08-25T04:13:48;32.13;;;9.90;;
22660;SDS011;11497;52.222;21.246;2022-08-25T04:16:18;36.15;;;10.82;;
22660;SDS011;11497;52.222;21.246;2022-08-25T04:18:52;42.50;;;10.77;;
22660;SDS011;11497;52.222;21.246;2022-08-25T04:21:22;33.33;;;10.48;;
22660;SDS011;11497;52.222;21.246;2022-08-25T04:23:51;37.58;;;10.30;;
22660;SDS011;11497;52.222;21.246;2022-08-25T04:26:22;33.47;;;10.45;;
22660;SDS011;11497;52.222;21.246;2022-08-25T04:29:02;45.30;;;9.98;;
22660;SDS011;11497;52.222;21.246;2022-08-25T04:31:31;36.22;;;11.15;;
22660;SDS011;11497;52.222;21.246;2022-08-25T04:34:03;30.50;;;10.40;;
22660;SDS011;11497;52.222;21.246;2022-08-25T04:36:52;34.58;;;10.52;;
22660;SDS011;11497;52.222;21.246;2022-08-25T04:39:21;30.50;;;10.07;;
22660;SDS011;11497;52.222;21.246;2022-08-25T04:41:49;44.60;;;10.25;;
22660;SDS011;11497;52.222;21.246;2022-08-25T04:44:17;42.13;;;11.35;;
22660;SDS011;11497;52.222;21.246;2022-08-25T04:46:44;35.40;;;10.93;;
22660;SDS011;11497;52.222;21.246;2022-08-25T04:49:12;24.25;;;9.23;;
22660;SDS011;11497;52.222;21.246;2022-08-25T04:51:41;34.35;;;9.95;;
22660;SDS011;11497;52.222;21.246;2022-08-25T04:54:10;45.20;;;10.50;;
22660;SDS011;11497;52.222;21.246;2022-08-25T04:56:42;31.80;;;10.13;;
22660;SDS011;11497;52.222;21.246;2022-08-25T04:59:11;39.20;;;10.30;;
22660;SDS011;11497;52.222;21.246;2022-08-25T05:01:40;37.75;;;10.20;;
22660;SDS011;11497;52.222;21.246;2022-08-25T05:04:10;40.85;;;10.45;;
22660;SDS011;11497;52.222;21.246;2022-08-25T05:06:55;38.05;;;10.30;;
22660;SDS011;11497;52.222;21.246;2022-08-25T05:09:24;47.22;;;11.57;;
22660;SDS011;11497;52.222;21.246;2022-08-25T05:11:53;44.22;;;10.35;;
22660;SDS011;11497;52.222;21.246;2022-08-25T05:14:21;35.88;;;10.48;;
22660;SDS011;11497;52.222;21.246;2022-08-25T05:16:53;39.45;;;10.38;;
22660;SDS011;11497;52.222;21.246;2022-08-25T05:19:21;40.10;;;11.05;;
22660;SDS011;11497;52.222;21.246;2022-08-25T05:21:50;34.03;;;10.35;;
22660;SDS011;11497;52.222;21.246;2022-08-25T05:24:18;36.33;;;9.77;;
22660;SDS011;11497;52.222;21.246;2022-08-25T05:26:48;32.92;;;9.32;;
22660;SDS011;11497;52.222;21.246;2022-08-25T05:29:16;51.90;;;10.88;;
22660;SDS011;11497;52.222;21.246;2022-08-25T05:31:44;34.72;;;10.23;;
22660;SDS011;11497;52.222;21.246;2022-08-25T05:34:16;52.55;;;11.15;;
22660;SDS011;11497;52.222;21.246;2022-08-25T05:36:45;45.83;;;10.20;;
22660;SDS011;11497;52.222;21.246;2022-08-25T05:39:14;49.67;;;11.13;;
22660;SDS011;11497;52.222;21.246;2022-08-25T05:41:42;43.72;;;10.23;;
22660;SDS011;11497;52.222;21.246;2022-08-25T05:44:10;34.00;;;9.95;;
22660;SDS011;11497;52.222;21.246;2022-08-25T05:46:38;47.92;;;11.45;;
22660;SDS011;11497;52.222;21.246;2022-08-25T05:49:06;46.40;;;11.02;;
22660;SDS011;11497;52.222;21.246;2022-08-25T05:51:34;42.22;;;9.60;;
22660;SDS011;11497;52.222;21.246;2022-08-25T05:54:01;31.70;;;10.25;;
22660;SDS011;11497;52.222;21.246;2022-08-25T05:56:30;31.58;;;10.23;;
22660;SDS011;11497;52.222;21.246;2022-08-25T05:58:58;40.75;;;9.40;;
22660;SDS011;11497;52.222;21.246;2022-08-25T06:01:26;47.67;;;10.95;;
22660;SDS011;11497;52.222;21.246;2022-08-25T06:04:16;38.65;;;9.10;;
22660;SDS011;11497;52.222;21.246;2022-08-25T06:06:45;40.85;;;9.75;;
22660;SDS011;11497;52.222;21.246;2022-08-25T06:09:14;42.28;;;11.20;;
22660;SDS011;11497;52.222;21.246;2022-08-25T06:11:42;40.47;;;9.45;;
22660;SDS011;11497;52.222;21.246;2022-08-25T06:14:10;43.40;;;10.63;;
22660;SDS011;11497;52.222;21.246;2022-08-25T06:16:38;44.33;;;11.15;;
22660;SDS011;11497;52.222;21.246;2022-08-25T06:19:07;45.80;;;11.05;;
22660;SDS011;11497;52.222;21.246;2022-08-25T06:21:36;40.55;;;10.45;;
22660;SDS011;11497;52.222;21.246;2022-08-25T06:24:07;43.70;;;10.82;;
22660;SDS011;11497;52.222;21.246;2022-08-25T06:26:41;30.63;;;9.50;;
22660;SDS011;11497;52.222;21.246;2022-08-25T06:29:10;50.35;;;10.93;;
22660;SDS011;11497;52.222;21.246;2022-08-25T06:31:39;43.35;;;9.00;;
22660;SDS011;11497;52.222;21.246;2022-08-25T06:34:08;38.50;;;9.82;;
22660;SDS011;11497;52.222;21.246;2022-08-25T06:36:37;35.17;;;8.90;;
22660;SDS011;11497;52.222;21.246;2022-08-25T06:39:05;37.40;;;9.18;;
22660;SDS011;11497;52.222;21.246;2022-08-25T06:41:36;39.28;;;9.80;;
22660;SDS011;11497;52.222;21.246;2022-08-25T06:44:04;30.45;;;8.73;;
22660;SDS011;11497;52.222;21.246;2022-08-25T06:46:32;29.83;;;9.20;;
22660;SDS011;11497;52.222;21.246;2022-08-25T06:49:03;25.42;;;9.05;;
22660;SDS011;11497;52.222;21.246;2022-08-25T06:51:32;31.20;;;9.40;;
22660;SDS011;11497;52.222;21.246;2022-08-25T06:54:04;27.15;;;8.55;;
22660;SDS011;11497;52.222;21.246;2022-08-25T06:56:36;23.30;;;7.40;;
22660;SDS011;11497;52.222;21.246;2022-08-25T06:59:06;33.08;;;8.60;;
22660;SDS011;11497;52.222;21.246;2022-08-25T07:01:35;38.97;;;8.98;;
22660;SDS011;11497;52.222;21.246;2022-08-25T07:04:04;33.35;;;8.65;;
22660;SDS011;11497;52.222;21.246;2022-08-25T07:06:40;27.67;;;7.72;;
22660;SDS011;11497;52.222;21.246;2022-08-25T07:09:09;26.67;;;8.05;;
22660;SDS011;11497;52.222;21.246;2022-08-25T07:11:39;27.25;;;8.05;;
22660;SDS011;11497;52.222;21.246;2022-08-25T07:14:08;25.05;;;8.15;;
22660;SDS011;11497;52.222;21.246;2022-08-25T07:16:38;27.38;;;7.53;;
22660;SDS011;11497;52.222;21.246;2022-08-25T07:19:14;21.88;;;7.90;;
22660;SDS011;11497;52.222;21.246;2022-08-25T07:21:48;22.02;;;7.53;;
22660;SDS011;11497;52.222;21.246;2022-08-25T07:24:17;26.55;;;8.05;;
22660;SDS011;11497;52.222;21.246;2022-08-25T07:26:46;25.50;;;7.95;;
22660;SDS011;11497;52.222;21.246;2022-08-25T07:29:19;32.75;;;8.30;;
22660;SDS011;11497;52.222;21.246;2022-08-25T07:32:01;21.15;;;7.22;;
22660;SDS011;11497;52.222;21.246;2022-08-25T07:34:31;24.58;;;7.93;;
22660;SDS011;11497;52.222;21.246;2022-08-25T07:37:20;23.48;;;7.25;;
22660;SDS011;11497;52.222;21.246;2022-08-25T07:40:12;21.55;;;7.75;;
22660;SDS011;11497;52.222;21.246;2022-08-25T07:42:43;21.08;;;7.15;;
22660;SDS011;11497;52.222;21.246;2022-08-25T07:45:12;30.33;;;8.20;;
22660;SDS011;11497;52.222;21.246;2022-08-25T07:47:42;20.20;;;7.47;;
22660;SDS011;11497;52.222;21.246;2022-08-25T07:50:11;23.58;;;7.50;;
22660;SDS011;11497;52.222;21.246;2022-08-25T07:52:40;17.80;;;7.00;;
22660;SDS011;11497;52.222;21.246;2022-08-25T07:55:08;25.42;;;7.25;;
22660;SDS011;11497;52.222;21.246;2022-08-25T07:57:39;28.85;;;7.68;;
22660;SDS011;11497;52.222;21.246;2022-08-25T08:00:08;23.55;;;7.65;;
22660;SDS011;11497;52.222;21.246;2022-08-25T08:02:39;23.50;;;6.63;;
22660;SDS011;11497;52.222;21.246;2022-08-25T08:05:08;20.17;;;6.63;;
22660;SDS011;11497;52.222;21.246;2022-08-25T08:07:38;16.55;;;6.45;;
22660;SDS011;11497;52.222;21.246;2022-08-25T08:10:11;23.83;;;6.82;;
22660;SDS011;11497;52.222;21.246;2022-08-25T08:13:00;25.20;;;7.00;;
22660;SDS011;11497;52.222;21.246;2022-08-25T08:15:28;23.15;;;6.80;;
22660;SDS011;11497;52.222;21.246;2022-08-25T08:17:57;17.65;;;6.40;;
22660;SDS011;11497;52.222;21.246;2022-08-25T08:20:26;17.58;;;6.28;;
22660;SDS011;11497;52.222;21.246;2022-08-25T08:22:54;16.58;;;6.43;;
22660;SDS011;11497;52.222;21.246;2022-08-25T08:25:22;17.05;;;5.93;;
22660;SDS011;11497;52.222;21.246;2022-08-25T08:27:53;13.18;;;5.25;;
22660;SDS011;11497;52.222;21.246;2022-08-25T08:30:22;17.83;;;6.32;;
22660;SDS011;11497;52.222;21.246;2022-08-25T08:32:52;17.65;;;6.13;;
22660;SDS011;11497;52.222;21.246;2022-08-25T08:35:41;18.75;;;5.95;;
22660;SDS011;11497;52.222;21.246;2022-08-25T08:38:09;20.48;;;6.25;;
22660;SDS011;11497;52.222;21.246;2022-08-25T08:40:49;18.45;;;6.50;;
22660;SDS011;11497;52.222;21.246;2022-08-25T08:53:08;12.63;;;5.15;;
22660;SDS011;11497;52.222;21.246;2022-08-25T08:56:00;18.15;;;5.68;;
22660;SDS011;11497;52.222;21.246;2022-08-25T09:01:12;13.65;;;5.25;;
22660;SDS011;11497;52.222;21.246;2022-08-25T09:03:55;14.38;;;5.45;;
22660;SDS011;11497;52.222;21.246;2022-08-25T09:06:32;17.10;;;5.18;;
22660;SDS011;11497;52.222;21.246;2022-08-25T09:09:11;12.82;;;5.40;;
22660;SDS011;11497;52.222;21.246;2022-08-25T09:22:27;20.40;;;5.55;;
22660;SDS011;11497;52.222;21.246;2022-08-25T09:28:20;13.02;;;4.07;;
22660;SDS011;11497;52.222;21.246;2022-08-25T09:31:26;12.65;;;4.47;;
22660;SDS011;11497;52.222;21.246;2022-08-25T09:34:10;14.98;;;4.50;;
22660;SDS011;11497;52.222;21.246;2022-08-25T09:36:41;16.08;;;4.25;;
22660;SDS011;11497;52.222;21.246;2022-08-25T09:39:10;14.52;;;4.47;;
22660;SDS011;11497;52.222;21.246;2022-08-25T09:41:46;15.77;;;4.55;;
22660;SDS011;11497;52.222;21.246;2022-08-25T09:49:57;17.42;;;5.00;;
22660;SDS011;11497;52.222;21.246;2022-08-25T09:52:34;19.52;;;5.30;;
22660;SDS011;11497;52.222;21.246;2022-08-25T10:06:07;10.60;;;4.13;;
22660;SDS011;11497;52.222;21.246;2022-08-25T10:11:11;17.00;;;4.32;;
22660;SDS011;11497;52.222;21.246;2022-08-25T10:14:05;16.98;;;4.65;;
22660;SDS011;11497;52.222;21.246;2022-08-25T10:16:39;15.60;;;4.38;;
22660;SDS011;11497;52.222;21.246;2022-08-25T10:22:06;9.13;;;4.07;;
22660;SDS011;11497;52.222;21.246;2022-08-25T10:24:58;9.75;;;4.05;;
22660;SDS011;11497;52.222;21.246;2022-08-25T10:30:27;9.65;;;4.18;;
22660;SDS011;11497;52.222;21.246;2022-08-25T10:33:05;12.55;;;4.20;;
22660;SDS011;11497;52.222;21.246;2022-08-25T10:38:48;7.60;;;4.13;;
22660;SDS011;11497;52.222;21.246;2022-08-25T10:44:15;14.50;;;4.43;;
22660;SDS011;11497;52.222;21.246;2022-08-25T10:50:13;13.77;;;4.10;;
22660;SDS011;11497;52.222;21.246;2022-08-25T10:55:59;13.30;;;4.40;;
22660;SDS011;11497;52.222;21.246;2022-08-25T11:04:11;12.60;;;3.85;;
22660;SDS011;11497;52.222;21.246;2022-08-25T11:09:27;11.85;;;3.70;;
22660;SDS011;11497;52.222;21.246;2022-08-25T11:12:09;11.98;;;3.58;;
22660;SDS011;11497;52.222;21.246;2022-08-25T11:14:45;14.27;;;4.10;;
22660;SDS011;11497;52.222;21.246;2022-08-25T11:19:54;14.10;;;3.70;;
22660;SDS011;11497;52.222;21.246;2022-08-25T11:22:29;12.73;;;3.90;;
22660;SDS011;11497;52.222;21.246;2022-08-25T11:25:19;14.38;;;4.20;;
22660;SDS011;11497;52.222;21.246;2022-08-25T11:30:57;10.82;;;3.10;;
22660;SDS011;11497;52.222;21.246;2022-08-25T11:33:26;11.48;;;3.65;;
22660;SDS011;11497;52.222;21.246;2022-08-25T11:35:58;12.05;;;3.53;;
22660;SDS011;11497;52.222;21.246;2022-08-25T11:44:08;9.30;;;3.40;;
22660;SDS011;11497;52.222;21.246;2022-08-25T11:57:49;9.98;;;3.30;;
22660;SDS011;11497;52.222;21.246;2022-08-25T12:00:39;8.68;;;3.05;;
22660;SDS011;11497;52.222;21.246;2022-08-25T12:03:52;10.18;;;3.50;;
22660;SDS011;11497;52.222;21.246;2022-08-25T12:41:18;13.05;;;4.25;;
22660;SDS011;11497;52.222;21.246;2022-08-25T12:43:51;8.63;;;3.75;;
22660;SDS011;11497;52.222;21.246;2022-08-25T12:46:36;11.50;;;3.42;;
22660;SDS011;11497;52.222;21.246;2022-08-25T12:52:11;10.15;;;3.28;;
22660;SDS011;11497;52.222;21.246;2022-08-25T12:54:57;8.00;;;3.35;;
22660;SDS011;11497;52.222;21.246;2022-08-25T12:57:33;11.75;;;3.72;;
22660;SDS011;11497;52.222;21.246;2022-08-25T13:00:21;6.15;;;3.53;;
22660;SDS011;11497;52.222;21.246;2022-08-25T13:03:25;7.88;;;3.47;;
22660;SDS011;11497;52.222;21.246;2022-08-25T13:11:39;5.90;;;3.25;;
22660;SDS011;11497;52.222;21.246;2022-08-25T13:17:04;6.55;;;2.90;;
22660;SDS011;11497;52.222;21.246;2022-08-25T13:19:35;9.85;;;3.13;;
22660;SDS011;11497;52.222;21.246;2022-08-25T13:22:09;11.20;;;3.28;;
22660;SDS011;11497;52.222;21.246;2022-08-25T13:24:43;15.40;;;3.08;;
22660;SDS011;11497;52.222;21.246;2022-08-25T13:27:34;7.90;;;3.20;;
22660;SDS011;11497;52.222;21.246;2022-08-25T13:30:03;5.43;;;3.38;;
22660;SDS011;11497;52.222;21.246;2022-08-25T13:32:34;8.23;;;3.30;;
22660;SDS011;11497;52.222;21.246;2022-08-25T13:35:27;5.75;;;3.03;;
22660;SDS011;11497;52.222;21.246;2022-08-25T13:38:19;8.48;;;3.00;;
22660;SDS011;11497;52.222;21.246;2022-08-25T13:40:46;8.55;;;3.47;;
22660;SDS011;11497;52.222;21.246;2022-08-25T13:43:14;9.25;;;3.28;;
22660;SDS011;11497;52.222;21.246;2022-08-25T13:45:48;5.93;;;3.05;;
22660;SDS011;11497;52.222;21.246;2022-08-25T13:48:30;9.35;;;3.60;;
22660;SDS011;11497;52.222;21.246;2022-08-25T13:51:05;5.68;;;3.08;;
22660;SDS011;11497;52.222;21.246;2022-08-25T13:54:00;8.55;;;3.80;;
22660;SDS011;11497;52.222;21.246;2022-08-25T13:56:35;10.65;;;3.40;;
22660;SDS011;11497;52.222;21.246;2022-08-25T13:59:27;12.93;;;3.47;;
22660;SDS011;11497;52.222;21.246;2022-08-25T14:02:06;12.13;;;3.90;;
22660;SDS011;11497;52.222;21.246;2022-08-25T14:04:46;6.82;;;3.50;;
22660;SDS011;11497;52.222;21.246;2022-08-25T14:09:52;12.18;;;3.42;;
22660;SDS011;11497;52.222;21.246;2022-08-25T14:15:06;7.80;;;2.85;;
22660;SDS011;11497;52.222;21.246;2022-08-25T14:18:01;6.80;;;3.00;;
22660;SDS011;11497;52.222;21.246;2022-08-25T14:20:55;7.60;;;3.08;;
22660;SDS011;11497;52.222;21.246;2022-08-25T14:23:25;5.60;;;3.10;;
22660;SDS011;11497;52.222;21.246;2022-08-25T14:25:57;8.55;;;3.08;;
22660;SDS011;11497;52.222;21.246;2022-08-25T14:28:26;12.45;;;3.60;;
22660;SDS011;11497;52.222;21.246;2022-08-25T14:31:39;6.30;;;3.13;;
22660;SDS011;11497;52.222;21.246;2022-08-25T14:33:58;11.38;;;3.17;;
22660;SDS011;11497;52.222;21.246;2022-08-25T14:36:29;11.52;;;3.85;;
22660;SDS011;11497;52.222;21.246;2022-08-25T14:38:59;9.63;;;3.15;;
22660;SDS011;11497;52.222;21.246;2022-08-25T14:41:34;6.57;;;3.00;;
22660;SDS011;11497;52.222;21.246;2022-08-25T14:44:04;9.65;;;3.00;;
22660;SDS011;11497;52.222;21.246;2022-08-25T14:46:39;9.80;;;2.75;;
22660;SDS011;11497;52.222;21.246;2022-08-25T14:49:12;11.23;;;3.00;;
22660;SDS011;11497;52.222;21.246;2022-08-25T14:51:50;9.85;;;3.08;;
22660;SDS011;11497;52.222;21.246;2022-08-25T14:54:19;13.27;;;3.15;;
22660;SDS011;11497;52.222;21.246;2022-08-25T14:56:52;8.48;;;3.00;;
22660;SDS011;11497;52.222;21.246;2022-08-25T14:59:21;8.25;;;3.13;;
22660;SDS011;11497;52.222;21.246;2022-08-25T15:01:49;8.65;;;2.92;;
22660;SDS011;11497;52.222;21.246;2022-08-25T15:04:24;8.05;;;2.92;;
22660;SDS011;11497;52.222;21.246;2022-08-25T15:06:56;7.63;;;3.28;;
22660;SDS011;11497;52.222;21.246;2022-08-25T15:09:25;13.05;;;2.92;;
22660;SDS011;11497;52.222;21.246;2022-08-25T15:11:59;6.80;;;3.53;;
22660;SDS011;11497;52.222;21.246;2022-08-25T15:14:27;11.05;;;3.10;;
22660;SDS011;11497;52.222;21.246;2022-08-25T15:16:59;6.03;;;3.53;;
22660;SDS011;11497;52.222;21.246;2022-08-25T15:19:29;11.40;;;3.05;;
22660;SDS011;11497;52.222;21.246;2022-08-25T15:21:56;7.45;;;2.58;;
22660;SDS011;11497;52.222;21.246;2022-08-25T15:24:25;7.30;;;2.85;;
22660;SDS011;11497;52.222;21.246;2022-08-25T15:26:55;8.82;;;3.60;;
22660;SDS011;11497;52.222;21.246;2022-08-25T15:29:26;7.55;;;3.15;;
22660;SDS011;11497;52.222;21.246;2022-08-25T15:31:56;6.75;;;2.55;;
22660;SDS011;11497;52.222;21.246;2022-08-25T15:34:26;8.45;;;3.00;;
22660;SDS011;11497;52.222;21.246;2022-08-25T15:36:57;6.93;;;3.00;;
22660;SDS011;11497;52.222;21.246;2022-08-25T15:39:33;8.40;;;2.53;;
22660;SDS011;11497;52.222;21.246;2022-08-25T15:42:01;11.45;;;2.90;;
22660;SDS011;11497;52.222;21.246;2022-08-25T15:44:31;10.98;;;2.83;;
22660;SDS011;11497;52.222;21.246;2022-08-25T15:47:01;9.88;;;2.80;;
22660;SDS011;11497;52.222;21.246;2022-08-25T15:49:30;5.25;;;3.00;;
22660;SDS011;11497;52.222;21.246;2022-08-25T15:51:59;7.35;;;2.63;;
22660;SDS011;11497;52.222;21.246;2022-08-25T15:54:27;8.00;;;3.08;;
22660;SDS011;11497;52.222;21.246;2022-08-25T15:56:57;10.75;;;3.15;;
22660;SDS011;11497;52.222;21.246;2022-08-25T15:59:25;6.70;;;2.85;;
22660;SDS011;11497;52.222;21.246;2022-08-25T16:01:54;6.18;;;2.63;;
22660;SDS011;11497;52.222;21.246;2022-08-25T16:04:23;7.97;;;2.88;;
22660;SDS011;11497;52.222;21.246;2022-08-25T16:06:53;7.65;;;3.22;;
22660;SDS011;11497;52.222;21.246;2022-08-25T16:09:21;8.05;;;3.00;;
22660;SDS011;11497;52.222;21.246;2022-08-25T16:11:50;10.77;;;3.20;;
22660;SDS011;11497;52.222;21.246;2022-08-25T16:14:22;8.00;;;2.80;;
22660;SDS011;11497;52.222;21.246;2022-08-25T16:16:53;4.97;;;2.80;;
22660;SDS011;11497;52.222;21.246;2022-08-25T16:19:24;14.40;;;2.88;;
22660;SDS011;11497;52.222;21.246;2022-08-25T16:21:53;9.48;;;2.78;;
22660;SDS011;11497;52.222;21.246;2022-08-25T16:24:21;12.23;;;2.88;;
22660;SDS011;11497;52.222;21.246;2022-08-25T16:26:50;8.95;;;2.90;;
22660;SDS011;11497;52.222;21.246;2022-08-25T16:29:21;7.53;;;2.40;;
22660;SDS011;11497;52.222;21.246;2022-08-25T16:31:48;6.90;;;2.65;;
22660;SDS011;11497;52.222;21.246;2022-08-25T16:34:20;12.10;;;2.70;;
22660;SDS011;11497;52.222;21.246;2022-08-25T16:36:50;10.15;;;2.90;;
22660;SDS011;11497;52.222;21.246;2022-08-25T16:39:19;9.98;;;2.83;;
22660;SDS011;11497;52.222;21.246;2022-08-25T16:41:49;12.88;;;3.05;;
22660;SDS011;11497;52.222;21.246;2022-08-25T16:44:18;8.82;;;3.42;;
22660;SDS011;11497;52.222;21.246;2022-08-25T16:46:48;7.40;;;2.80;;
22660;SDS011;11497;52.222;21.246;2022-08-25T16:49:20;8.55;;;2.95;;
22660;SDS011;11497;52.222;21.246;2022-08-25T16:51:50;9.10;;;3.13;;
22660;SDS011;11497;52.222;21.246;2022-08-25T16:54:23;7.05;;;3.03;;
22660;SDS011;11497;52.222;21.246;2022-08-25T16:57:11;8.57;;;2.90;;
22660;SDS011;11497;52.222;21.246;2022-08-25T16:59:39;9.77;;;3.22;;
22660;SDS011;11497;52.222;21.246;2022-08-25T17:02:09;9.02;;;3.13;;
22660;SDS011;11497;52.222;21.246;2022-08-25T17:04:38;7.90;;;3.20;;
22660;SDS011;11497;52.222;21.246;2022-08-25T17:07:06;6.55;;;2.92;;
22660;SDS011;11497;52.222;21.246;2022-08-25T17:09:34;13.18;;;4.03;;
22660;SDS011;11497;52.222;21.246;2022-08-25T17:12:02;10.73;;;3.17;;
22660;SDS011;11497;52.222;21.246;2022-08-25T17:14:31;8.43;;;3.30;;
22660;SDS011;11497;52.222;21.246;2022-08-25T17:16:59;6.07;;;3.35;;
22660;SDS011;11497;52.222;21.246;2022-08-25T17:19:29;9.93;;;3.33;;
22660;SDS011;11497;52.222;21.246;2022-08-25T17:21:57;12.93;;;3.95;;